Portada
METAR-TAF:

METAR-TAF

Aeroports :

Lappeenranta, Finlàndia

latitud: 61-02-45N, longitud: 028-08-55E, altitud: 106 m

Observació

L'informe es va fer fa 18 minuts, a les 15:20 UTC
Vent 3 kt del Nord/Nord-Est
Temperatura 24°C
Humitat 36%
Pressió 1017 hPa
Visibilitat 10 km o més
sense núvols per sota de 1500 mi sense presència de cumulonimbus.

METAR: EFLP 211520Z AUTO 03003KT CAVOK 24/08 Q1017

Hora: 18:38 (15:38 UTC)

Pronòstic

L'informe es va fer fa 22 hores i 11 minuts, a les 17:27 UTC
Pronòstic vàlid del 20 a les 18 UTC al 20 a les 21 UTC
Vent 2 kt amb direcció variable
Visibilitat 10 km o més
sense núvols per sota de 1500 mi sense presència de cumulonimbus.

TAF: EFLP 201727Z 2018/2021 VRB02KT CAVOK

Observacions i pronòstics meteorològics de més de 4000 aeroports (METAR i TAF).

Les estacions disponibles són els punts grocs i vermells al mapa.

Posi el ratolí al punt desitjat per veure el nom de l'estació.

Feu clic per veure les observacions i els pronòstics meteorològics.

Per canviar el mapa: feu clic els botons verds amb una creu de color negre per apropar; al botó verd amb un guió per allunyar la imatge; o en les fletxes verdes per a mapes adjacents.


METAR-TAF: